sensor_id;sensor_type;location;lat;lon;timestamp;pressure;altitude;pressure_sealevel;temperature;humidity
72116;BME280;59991;52.140;5.428;2023-05-10T00:00:18;100870.69;;;12.97;100.00
72116;BME280;59991;52.140;5.428;2023-05-10T00:00:50;100869.91;;;12.97;100.00
72116;BME280;59991;52.140;5.428;2023-05-10T00:01:22;100873.44;;;12.97;100.00
72116;BME280;59991;52.140;5.428;2023-05-10T00:01:53;100870.69;;;12.97;100.00
72116;BME280;59991;52.140;5.428;2023-05-10T00:02:25;100869.91;;;12.97;100.00
72116;BME280;59991;52.140;5.428;2023-05-10T00:02:58;100878.13;;;12.97;100.00
72116;BME280;59991;52.140;5.428;2023-05-10T00:03:29;100870.69;;;12.97;100.00
72116;BME280;59991;52.140;5.428;2023-05-10T00:04:01;100869.91;;;12.97;100.00
72116;BME280;59991;52.140;5.428;2023-05-10T00:04:32;100865.63;;;12.96;100.00
72116;BME280;59991;52.140;5.428;2023-05-10T00:05:04;100867.56;;;12.95;100.00
72116;BME280;59991;52.140;5.428;2023-05-10T00:05:36;100866.41;;;12.96;100.00
72116;BME280;59991;52.140;5.428;2023-05-10T00:06:07;100864.81;;;12.95;100.00
72116;BME280;59991;52.140;5.428;2023-05-10T00:06:39;100865.63;;;12.96;100.00
72116;BME280;59991;52.140;5.428;2023-05-10T00:07:10;100867.56;;;12.95;100.00
72116;BME280;59991;52.140;5.428;2023-05-10T00:07:42;100865.63;;;12.96;100.00
72116;BME280;59991;52.140;5.428;2023-05-10T00:08:16;100867.56;;;12.95;100.00
72116;BME280;59991;52.140;5.428;2023-05-10T00:08:47;100864.81;;;12.95;100.00
72116;BME280;59991;52.140;5.428;2023-05-10T00:09:18;100867.56;;;12.95;100.00
72116;BME280;59991;52.140;5.428;2023-05-10T00:09:50;100872.25;;;12.95;100.00
72116;BME280;59991;52.140;5.428;2023-05-10T00:10:22;100866.78;;;12.95;100.00
72116;BME280;59991;52.140;5.428;2023-05-10T00:10:53;100864.81;;;12.95;100.00
72116;BME280;59991;52.140;5.428;2023-05-10T00:11:25;100866.00;;;12.94;100.00
72116;BME280;59991;52.140;5.428;2023-05-10T00:11:56;100863.25;;;12.94;100.00
72116;BME280;59991;52.140;5.428;2023-05-10T00:12:29;100867.56;;;12.95;100.00
72116;BME280;59991;52.140;5.428;2023-05-10T00:13:01;100859.34;;;12.95;100.00
72116;BME280;59991;52.140;5.428;2023-05-10T00:13:32;100862.09;;;12.95;100.00
72116;BME280;59991;52.140;5.428;2023-05-10T00:14:04;100862.09;;;12.95;100.00
72116;BME280;59991;52.140;5.428;2023-05-10T00:14:36;100866.41;;;12.96;100.00
72116;BME280;59991;52.140;5.428;2023-05-10T00:15:08;100858.19;;;12.96;100.00
72116;BME280;59991;52.140;5.428;2023-05-10T00:15:40;100857.41;;;12.96;100.00
72116;BME280;59991;52.140;5.428;2023-05-10T00:16:11;100863.66;;;12.96;100.00
72116;BME280;59991;52.140;5.428;2023-05-10T00:16:44;100866.41;;;12.96;100.00
72116;BME280;59991;52.140;5.428;2023-05-10T00:17:16;100860.13;;;12.96;100.00
72116;BME280;59991;52.140;5.428;2023-05-10T00:17:48;100862.88;;;12.96;100.00
72116;BME280;59991;52.140;5.428;2023-05-10T00:18:19;100857.41;;;12.96;100.00
72116;BME280;59991;52.140;5.428;2023-05-10T00:18:51;100857.41;;;12.96;100.00
72116;BME280;59991;52.140;5.428;2023-05-10T00:19:22;100860.91;;;12.96;100.00
72116;BME280;59991;52.140;5.428;2023-05-10T00:19:54;100863.66;;;12.96;100.00
72116;BME280;59991;52.140;5.428;2023-05-10T00:20:25;100860.91;;;12.96;100.00
72116;BME280;59991;52.140;5.428;2023-05-10T00:20:57;100860.91;;;12.96;100.00
72116;BME280;59991;52.140;5.428;2023-05-10T00:21:28;100862.88;;;12.96;100.00
72116;BME280;59991;52.140;5.428;2023-05-10T00:22:00;100855.44;;;12.96;100.00
72116;BME280;59991;52.140;5.428;2023-05-10T00:22:31;100868.34;;;12.96;100.00
72116;BME280;59991;52.140;5.428;2023-05-10T00:23:03;100855.84;;;12.95;100.00
72116;BME280;59991;52.140;5.428;2023-05-10T00:23:35;100857.41;;;12.96;100.00
72116;BME280;59991;52.140;5.428;2023-05-10T00:24:06;100853.09;;;12.95;100.00
72116;BME280;59991;52.140;5.428;2023-05-10T00:24:38;100866.41;;;12.96;100.00
72116;BME280;59991;52.140;5.428;2023-05-10T00:25:09;100865.63;;;12.96;100.00
72116;BME280;59991;52.140;5.428;2023-05-10T00:25:41;100860.13;;;12.96;100.00
72116;BME280;59991;52.140;5.428;2023-05-10T00:26:13;100862.88;;;12.96;100.00
72116;BME280;59991;52.140;5.428;2023-05-10T00:26:44;100859.34;;;12.95;100.00
72116;BME280;59991;52.140;5.428;2023-05-10T00:27:16;100856.63;;;12.95;100.00
72116;BME280;59991;52.140;5.428;2023-05-10T00:27:47;100860.13;;;12.96;100.00
72116;BME280;59991;52.140;5.428;2023-05-10T00:28:19;100857.41;;;12.96;100.00
72116;BME280;59991;52.140;5.428;2023-05-10T00:28:50;100860.13;;;12.96;100.00
72116;BME280;59991;52.140;5.428;2023-05-10T00:29:22;100854.66;;;12.96;100.00
72116;BME280;59991;52.140;5.428;2023-05-10T00:29:53;100849.97;;;12.96;100.00
72116;BME280;59991;52.140;5.428;2023-05-10T00:30:24;100864.44;;;12.97;100.00
72116;BME280;59991;52.140;5.428;2023-05-10T00:30:56;100855.44;;;12.96;100.00
72116;BME280;59991;52.140;5.428;2023-05-10T00:31:27;100860.13;;;12.96;100.00
72116;BME280;59991;52.140;5.428;2023-05-10T00:31:59;100855.44;;;12.96;100.00
72116;BME280;59991;52.140;5.428;2023-05-10T00:32:30;100852.72;;;12.96;100.00
72116;BME280;59991;52.140;5.428;2023-05-10T00:33:02;100850.75;;;12.97;100.00
72116;BME280;59991;52.140;5.428;2023-05-10T00:33:34;100853.50;;;12.97;100.00
72116;BME280;59991;52.140;5.428;2023-05-10T00:34:05;100856.63;;;12.95;100.00
72116;BME280;59991;52.140;5.428;2023-05-10T00:34:37;100851.94;;;12.96;100.00
72116;BME280;59991;52.140;5.428;2023-05-10T00:35:08;100856.22;;;12.97;100.00
72116;BME280;59991;52.140;5.428;2023-05-10T00:35:39;100852.72;;;12.96;100.00
72116;BME280;59991;52.140;5.428;2023-05-10T00:36:11;100854.66;;;12.96;100.00
72116;BME280;59991;52.140;5.428;2023-05-10T00:36:43;100853.50;;;12.97;100.00
72116;BME280;59991;52.140;5.428;2023-05-10T00:37:14;100856.22;;;12.97;100.00
72116;BME280;59991;52.140;5.428;2023-05-10T00:37:46;100847.22;;;12.96;100.00
72116;BME280;59991;52.140;5.428;2023-05-10T00:38:17;100857.00;;;12.97;100.00
72116;BME280;59991;52.140;5.428;2023-05-10T00:38:49;100859.75;;;12.97;100.00
72116;BME280;59991;52.140;5.428;2023-05-10T00:39:21;100857.41;;;12.96;100.00
72116;BME280;59991;52.140;5.428;2023-05-10T00:39:52;100857.41;;;12.96;100.00
72116;BME280;59991;52.140;5.428;2023-05-10T00:40:24;100860.13;;;12.96;100.00
72116;BME280;59991;52.140;5.428;2023-05-10T00:40:56;100856.63;;;12.95;100.00
72116;BME280;59991;52.140;5.428;2023-05-10T00:41:27;100853.50;;;12.97;100.00
72116;BME280;59991;52.140;5.428;2023-05-10T00:41:59;100859.34;;;12.95;100.00
72116;BME280;59991;52.140;5.428;2023-05-10T00:42:31;100854.66;;;12.96;100.00
72116;BME280;59991;52.140;5.428;2023-05-10T00:43:03;100851.94;;;12.96;100.00
72116;BME280;59991;52.140;5.428;2023-05-10T00:43:34;100860.91;;;12.96;100.00
72116;BME280;59991;52.140;5.428;2023-05-10T00:44:05;100856.63;;;12.95;100.00
72116;BME280;59991;52.140;5.428;2023-05-10T00:44:37;100852.72;;;12.96;100.00
72116;BME280;59991;52.140;5.428;2023-05-10T00:45:09;100862.09;;;12.95;100.00
72116;BME280;59991;52.140;5.428;2023-05-10T00:45:40;100860.13;;;12.96;100.00
72116;BME280;59991;52.140;5.428;2023-05-10T00:46:14;100862.09;;;12.95;100.00
72116;BME280;59991;52.140;5.428;2023-05-10T00:46:47;100856.63;;;12.95;100.00
72116;BME280;59991;52.140;5.428;2023-05-10T00:47:19;100860.53;;;12.94;100.00
72116;BME280;59991;52.140;5.428;2023-05-10T00:47:51;100861.31;;;12.95;100.00
72116;BME280;59991;52.140;5.428;2023-05-10T00:48:26;100854.28;;;12.94;100.00
72116;BME280;59991;52.140;5.428;2023-05-10T00:48:58;100855.84;;;12.95;100.00
72116;BME280;59991;52.140;5.428;2023-05-10T00:49:29;100857.00;;;12.94;100.00
72116;BME280;59991;52.140;5.428;2023-05-10T00:50:01;100861.31;;;12.95;100.00
72116;BME280;59991;52.140;5.428;2023-05-10T00:50:33;100851.53;;;12.94;100.00
72116;BME280;59991;52.140;5.428;2023-05-10T00:51:05;100860.53;;;12.94;100.00
72116;BME280;59991;52.140;5.428;2023-05-10T00:51:37;100855.06;;;12.94;100.00
72116;BME280;59991;52.140;5.428;2023-05-10T00:52:09;100855.06;;;12.94;100.00
72116;BME280;59991;52.140;5.428;2023-05-10T00:52:41;100855.84;;;12.95;100.00
72116;BME280;59991;52.140;5.428;2023-05-10T00:53:14;100852.31;;;12.94;100.00
72116;BME280;59991;52.140;5.428;2023-05-10T00:53:46;100857.00;;;12.94;100.00
72116;BME280;59991;52.140;5.428;2023-05-10T00:54:18;100855.06;;;12.94;100.00
72116;BME280;59991;52.140;5.428;2023-05-10T00:54:51;100854.28;;;12.94;100.00
72116;BME280;59991;52.140;5.428;2023-05-10T00:55:23;100854.28;;;12.94;100.00
72116;BME280;59991;52.140;5.428;2023-05-10T00:55:55;100857.78;;;12.94;100.00
72116;BME280;59991;52.140;5.428;2023-05-10T00:56:26;100851.16;;;12.95;100.00
72116;BME280;59991;52.140;5.428;2023-05-10T00:56:59;100859.34;;;12.95;100.00
72116;BME280;59991;52.140;5.428;2023-05-10T00:57:31;100854.66;;;12.96;100.00
72116;BME280;59991;52.140;5.428;2023-05-10T00:58:04;100857.41;;;12.96;100.00
72116;BME280;59991;52.140;5.428;2023-05-10T00:58:36;100856.22;;;12.97;100.00
72116;BME280;59991;52.140;5.428;2023-05-10T00:59:09;100849.97;;;12.96;100.00
72116;BME280;59991;52.140;5.428;2023-05-10T00:59:40;100858.19;;;12.96;100.00
72116;BME280;59991;52.140;5.428;2023-05-10T01:00:12;100867.56;;;12.95;100.00
72116;BME280;59991;52.140;5.428;2023-05-10T01:00:49;100860.91;;;12.96;100.00
72116;BME280;59991;52.140;5.428;2023-05-10T01:01:21;100855.44;;;12.96;100.00
72116;BME280;59991;52.140;5.428;2023-05-10T01:01:53;100864.81;;;12.95;100.00
72116;BME280;59991;52.140;5.428;2023-05-10T01:02:25;100862.09;;;12.95;100.00
72116;BME280;59991;52.140;5.428;2023-05-10T01:02:57;100856.63;;;12.95;100.00
72116;BME280;59991;52.140;5.428;2023-05-10T01:03:29;100860.91;;;12.96;100.00
72116;BME280;59991;52.140;5.428;2023-05-10T01:04:01;100861.31;;;12.95;100.00
72116;BME280;59991;52.140;5.428;2023-05-10T01:04:34;100857.78;;;12.94;100.00
72116;BME280;59991;52.140;5.428;2023-05-10T01:05:06;100863.25;;;12.94;100.00
72116;BME280;59991;52.140;5.428;2023-05-10T01:05:38;100854.66;;;12.92;100.00
72116;BME280;59991;52.140;5.428;2023-05-10T01:06:10;100854.66;;;12.92;100.00
72116;BME280;59991;52.140;5.428;2023-05-10T01:06:41;100857.78;;;12.91;100.00
72116;BME280;59991;52.140;5.428;2023-05-10T01:07:13;100855.84;;;12.91;100.00
72116;BME280;59991;52.140;5.428;2023-05-10T01:07:44;100857.00;;;12.90;100.00
72116;BME280;59991;52.140;5.428;2023-05-10T01:08:15;100865.22;;;12.90;100.00
72116;BME280;59991;52.140;5.428;2023-05-10T01:08:47;100862.47;;;12.90;100.00
72116;BME280;59991;52.140;5.428;2023-05-10T01:09:20;100864.44;;;12.90;100.00
72116;BME280;59991;52.140;5.428;2023-05-10T01:09:51;100863.25;;;12.91;100.00
72116;BME280;59991;52.140;5.428;2023-05-10T01:10:23;100863.69;;;12.89;100.00
72116;BME280;59991;52.140;5.428;2023-05-10T01:10:55;100863.25;;;12.91;100.00
72116;BME280;59991;52.140;5.428;2023-05-10T01:11:26;100862.47;;;12.90;100.00
72116;BME280;59991;52.140;5.428;2023-05-10T01:11:59;100858.22;;;12.89;100.00
72116;BME280;59991;52.140;5.428;2023-05-10T01:12:38;100873.44;;;12.90;100.00
72116;BME280;59991;52.140;5.428;2023-05-10T01:13:12;100858.97;;;12.90;100.00
72116;BME280;59991;52.140;5.428;2023-05-10T01:13:55;100862.47;;;12.90;100.00
72116;BME280;59991;52.140;5.428;2023-05-10T01:14:27;100855.06;;;12.91;100.00
72116;BME280;59991;52.140;5.428;2023-05-10T01:15:00;100859.75;;;12.90;100.00
72116;BME280;59991;52.140;5.428;2023-05-10T01:15:32;100860.53;;;12.91;100.00
72116;BME280;59991;52.140;5.428;2023-05-10T01:16:05;100860.53;;;12.91;100.00
72116;BME280;59991;52.140;5.428;2023-05-10T01:16:39;100860.53;;;12.91;100.00
72116;BME280;59991;52.140;5.428;2023-05-10T01:17:12;100859.75;;;12.90;100.00
72116;BME280;59991;52.140;5.428;2023-05-10T01:17:44;100862.47;;;12.90;100.00
72116;BME280;59991;52.140;5.428;2023-05-10T01:18:19;100855.06;;;12.91;100.00
72116;BME280;59991;52.140;5.428;2023-05-10T01:18:52;100862.09;;;12.92;100.00
72116;BME280;59991;52.140;5.428;2023-05-10T01:19:26;100866.00;;;12.91;100.00
72116;BME280;59991;52.140;5.428;2023-05-10T01:19:57;100865.22;;;12.90;100.00
72116;BME280;59991;52.140;5.428;2023-05-10T01:20:35;100865.22;;;12.90;100.00
72116;BME280;59991;52.140;5.428;2023-05-10T01:21:17;100865.22;;;12.90;100.00
72116;BME280;59991;52.140;5.428;2023-05-10T01:23:27;100864.84;;;12.88;100.00
72116;BME280;59991;52.140;5.428;2023-05-10T01:25:16;100865.25;;;12.87;100.00
72116;BME280;59991;52.140;5.428;2023-05-10T01:28:46;100863.69;;;12.86;100.00
72116;BME280;59991;52.140;5.428;2023-05-10T01:33:19;100860.53;;;12.80;100.00
72116;BME280;59991;52.140;5.428;2023-05-10T01:34:02;100859.75;;;12.79;100.00
72116;BME280;59991;52.140;5.428;2023-05-10T01:34:52;100859.75;;;12.79;100.00
72116;BME280;59991;52.140;5.428;2023-05-10T01:35:31;100861.72;;;12.79;100.00
72116;BME280;59991;52.140;5.428;2023-05-10T01:36:13;100853.50;;;12.79;100.00
72116;BME280;59991;52.140;5.428;2023-05-10T01:37:00;100858.19;;;12.78;100.00
72116;BME280;59991;52.140;5.428;2023-05-10T01:37:42;100855.47;;;12.78;100.00
72116;BME280;59991;52.140;5.428;2023-05-10T01:39:25;100859.75;;;12.79;100.00
72116;BME280;59991;52.140;5.428;2023-05-10T01:40:13;100857.41;;;12.78;100.00
72116;BME280;59991;52.140;5.428;2023-05-10T01:41:54;100864.84;;;12.77;100.00
72116;BME280;59991;52.140;5.428;2023-05-10T01:42:29;100861.31;;;12.77;100.00
72116;BME280;59991;52.140;5.428;2023-05-10T01:43:10;100860.53;;;12.76;100.00
72116;BME280;59991;52.140;5.428;2023-05-10T01:44:16;100866.78;;;12.77;100.00
72116;BME280;59991;52.140;5.428;2023-05-10T01:44:56;100861.31;;;12.77;100.00
72116;BME280;59991;52.140;5.428;2023-05-10T01:45:48;100859.75;;;12.76;100.00
72116;BME280;59991;52.140;5.428;2023-05-10T01:46:31;100865.22;;;12.76;100.00
72116;BME280;59991;52.140;5.428;2023-05-10T01:47:09;100865.22;;;12.76;100.00
72116;BME280;59991;52.140;5.428;2023-05-10T01:47:43;100864.44;;;12.75;100.00
72116;BME280;59991;52.140;5.428;2023-05-10T01:48:16;100874.22;;;12.76;100.00
72116;BME280;59991;52.140;5.428;2023-05-10T01:48:54;100864.44;;;12.75;100.00
72116;BME280;59991;52.140;5.428;2023-05-10T01:49:31;100869.13;;;12.75;100.00
72116;BME280;59991;52.140;5.428;2023-05-10T01:50:04;100869.13;;;12.75;100.00
72116;BME280;59991;52.140;5.428;2023-05-10T01:50:43;100867.19;;;12.75;100.00
72116;BME280;59991;52.140;5.428;2023-05-10T01:51:23;100869.13;;;12.75;100.00
72116;BME280;59991;52.140;5.428;2023-05-10T01:52:00;100864.84;;;12.74;100.00
72116;BME280;59991;52.140;5.428;2023-05-10T01:52:38;100864.84;;;12.74;100.00
72116;BME280;59991;52.140;5.428;2023-05-10T01:53:12;100864.06;;;12.73;100.00
72116;BME280;59991;52.140;5.428;2023-05-10T01:53:47;100867.19;;;12.72;100.00
72116;BME280;59991;52.140;5.428;2023-05-10T01:54:21;100857.41;;;12.71;100.00
72116;BME280;59991;52.140;5.428;2023-05-10T01:54:56;100863.66;;;12.71;100.00
72116;BME280;59991;52.140;5.428;2023-05-10T01:55:33;100861.34;;;12.70;100.00
72116;BME280;59991;52.140;5.428;2023-05-10T01:56:07;100865.59;;;12.71;100.00
72116;BME280;59991;52.140;5.428;2023-05-10T01:56:40;100862.88;;;12.71;100.00
72116;BME280;59991;52.140;5.428;2023-05-10T01:57:13;100859.75;;;12.72;100.00
72116;BME280;59991;52.140;5.428;2023-05-10T01:57:47;100859.75;;;12.72;100.00
72116;BME280;59991;52.140;5.428;2023-05-10T01:58:29;100858.97;;;12.72;100.00
72116;BME280;59991;52.140;5.428;2023-05-10T01:59:05;100855.06;;;12.73;100.00
72116;BME280;59991;52.140;5.428;2023-05-10T01:59:40;100853.88;;;12.74;100.00
72116;BME280;59991;52.140;5.428;2023-05-10T02:00:14;100860.94;;;12.75;100.00
72116;BME280;59991;52.140;5.428;2023-05-10T02:00:49;100862.88;;;12.74;100.00
72116;BME280;59991;52.140;5.428;2023-05-10T02:01:22;100870.31;;;12.74;100.00
72116;BME280;59991;52.140;5.428;2023-05-10T02:01:57;100862.88;;;12.74;100.00
72116;BME280;59991;52.140;5.428;2023-05-10T02:02:33;100865.63;;;12.74;100.00
72116;BME280;59991;52.140;5.428;2023-05-10T02:03:08;100859.75;;;12.76;100.00
72116;BME280;59991;52.140;5.428;2023-05-10T02:03:42;100858.19;;;12.75;100.00
72116;BME280;59991;52.140;5.428;2023-05-10T02:04:16;100864.44;;;12.75;100.00
72116;BME280;59991;52.140;5.428;2023-05-10T02:04:49;100865.22;;;12.76;100.00
72116;BME280;59991;52.140;5.428;2023-05-10T02:05:22;100861.72;;;12.75;100.00
72116;BME280;59991;52.140;5.428;2023-05-10T02:05:55;100865.22;;;12.76;100.00
72116;BME280;59991;52.140;5.428;2023-05-10T02:06:27;100863.66;;;12.75;100.00
72116;BME280;59991;52.140;5.428;2023-05-10T02:06:59;100860.94;;;12.75;100.00
72116;BME280;59991;52.140;5.428;2023-05-10T02:07:32;100858.97;;;12.75;100.00
72116;BME280;59991;52.140;5.428;2023-05-10T02:08:06;100860.94;;;12.75;100.00
72116;BME280;59991;52.140;5.428;2023-05-10T02:08:39;100865.63;;;12.74;100.00
72116;BME280;59991;52.140;5.428;2023-05-10T02:09:11;100861.72;;;12.75;100.00
72116;BME280;59991;52.140;5.428;2023-05-10T02:09:45;100859.75;;;12.76;100.00
72116;BME280;59991;52.140;5.428;2023-05-10T02:10:20;100867.19;;;12.75;100.00
72116;BME280;59991;52.140;5.428;2023-05-10T02:10:54;100862.50;;;12.76;100.00
72116;BME280;59991;52.140;5.428;2023-05-10T02:11:27;100867.19;;;12.75;100.00
72116;BME280;59991;52.140;5.428;2023-05-10T02:12:01;100862.50;;;12.76;100.00
72116;BME280;59991;52.140;5.428;2023-05-10T02:12:45;100871.47;;;12.76;100.00
72116;BME280;59991;52.140;5.428;2023-05-10T02:13:19;100865.22;;;12.76;100.00
72116;BME280;59991;52.140;5.428;2023-05-10T02:13:51;100874.59;;;12.75;100.00
72116;BME280;59991;52.140;5.428;2023-05-10T02:14:25;100877.34;;;12.75;100.00
72116;BME280;59991;52.140;5.428;2023-05-10T02:15:02;100870.31;;;12.74;100.00
72116;BME280;59991;52.140;5.428;2023-05-10T02:15:34;100871.88;;;12.75;100.00
72116;BME280;59991;52.140;5.428;2023-05-10T02:16:07;100865.63;;;12.74;100.00
72116;BME280;59991;52.140;5.428;2023-05-10T02:16:39;100869.13;;;12.75;100.00
72116;BME280;59991;52.140;5.428;2023-05-10T02:17:12;100869.13;;;12.75;100.00
72116;BME280;59991;52.140;5.428;2023-05-10T02:17:45;100867.19;;;12.75;100.00
72116;BME280;59991;52.140;5.428;2023-05-10T02:18:18;100872.66;;;12.75;100.00
72116;BME280;59991;52.140;5.428;2023-05-10T02:18:50;100871.47;;;12.76;100.00
72116;BME280;59991;52.140;5.428;2023-05-10T02:19:23;100865.22;;;12.76;100.00
72116;BME280;59991;52.140;5.428;2023-05-10T02:19:55;100866.00;;;12.76;100.00
72116;BME280;59991;52.140;5.428;2023-05-10T02:20:29;100870.69;;;12.76;100.00
72116;BME280;59991;52.140;5.428;2023-05-10T02:21:02;100867.97;;;12.76;100.00
72116;BME280;59991;52.140;5.428;2023-05-10T02:21:35;100864.44;;;12.75;100.00
72116;BME280;59991;52.140;5.428;2023-05-10T02:22:08;100870.69;;;12.76;100.00
72116;BME280;59991;52.140;5.428;2023-05-10T02:22:41;100870.31;;;12.74;100.00
72116;BME280;59991;52.140;5.428;2023-05-10T02:23:14;100870.69;;;12.76;100.00
72116;BME280;59991;52.140;5.428;2023-05-10T02:23:48;100869.91;;;12.75;100.00
72116;BME280;59991;52.140;5.428;2023-05-10T02:24:22;100872.66;;;12.75;100.00
72116;BME280;59991;52.140;5.428;2023-05-10T02:24:57;100869.91;;;12.75;100.00
72116;BME280;59991;52.140;5.428;2023-05-10T02:25:31;100874.59;;;12.75;100.00
72116;BME280;59991;52.140;5.428;2023-05-10T02:26:04;100873.44;;;12.76;100.00
72116;BME280;59991;52.140;5.428;2023-05-10T02:26:38;100876.19;;;12.76;100.00
72116;BME280;59991;52.140;5.428;2023-05-10T02:27:09;100876.19;;;12.76;100.00
72116;BME280;59991;52.140;5.428;2023-05-10T02:27:43;100876.19;;;12.76;100.00
72116;BME280;59991;52.140;5.428;2023-05-10T02:28:16;100873.44;;;12.76;100.00
72116;BME280;59991;52.140;5.428;2023-05-10T02:28:49;100878.91;;;12.76;100.00
72116;BME280;59991;52.140;5.428;2023-05-10T02:29:23;100878.91;;;12.76;100.00
72116;BME280;59991;52.140;5.428;2023-05-10T02:29:57;100877.34;;;12.75;100.00
72116;BME280;59991;52.140;5.428;2023-05-10T02:30:31;100875.38;;;12.75;100.00
72116;BME280;59991;52.140;5.428;2023-05-10T02:31:05;100877.34;;;12.75;100.00
72116;BME280;59991;52.140;5.428;2023-05-10T02:31:37;100880.88;;;12.75;100.00
72116;BME280;59991;52.140;5.428;2023-05-10T02:32:10;100873.81;;;12.74;100.00
72116;BME280;59991;52.140;5.428;2023-05-10T02:32:43;100884.00;;;12.74;100.00
72116;BME280;59991;52.140;5.428;2023-05-10T02:33:16;100881.25;;;12.74;100.00
72116;BME280;59991;52.140;5.428;2023-05-10T02:33:48;100887.13;;;12.72;100.00
72116;BME280;59991;52.140;5.428;2023-05-10T02:34:21;100880.06;;;12.71;100.00
72116;BME280;59991;52.140;5.428;2023-05-10T02:34:56;100877.34;;;12.71;100.00
72116;BME280;59991;52.140;5.428;2023-05-10T02:35:28;100879.28;;;12.71;100.00
72116;BME280;59991;52.140;5.428;2023-05-10T02:36:01;100881.25;;;12.70;100.00
72116;BME280;59991;52.140;5.428;2023-05-10T02:36:34;100883.22;;;12.70;100.00
72116;BME280;59991;52.140;5.428;2023-05-10T02:37:06;100885.97;;;12.70;100.00
72116;BME280;59991;52.140;5.428;2023-05-10T02:37:38;100883.97;;;12.70;100.00
72116;BME280;59991;52.140;5.428;2023-05-10T02:38:11;100883.22;;;12.70;100.00
72116;BME280;59991;52.140;5.428;2023-05-10T02:38:44;100884.75;;;12.71;100.00
72116;BME280;59991;52.140;5.428;2023-05-10T02:39:18;100883.97;;;12.70;100.00
72116;BME280;59991;52.140;5.428;2023-05-10T02:39:52;100880.50;;;12.70;100.00
72116;BME280;59991;52.140;5.428;2023-05-10T02:40:25;100880.50;;;12.70;100.00
72116;BME280;59991;52.140;5.428;2023-05-10T02:40:59;100884.41;;;12.69;100.00
72116;BME280;59991;52.140;5.428;2023-05-10T02:41:32;100883.22;;;12.70;100.00
72116;BME280;59991;52.140;5.428;2023-05-10T02:42:05;100880.09;;;12.68;100.00
72116;BME280;59991;52.140;5.428;2023-05-10T02:42:37;100889.88;;;12.69;100.00
72116;BME280;59991;52.140;5.428;2023-05-10T02:43:13;100886.75;;;12.67;100.00
72116;BME280;59991;52.140;5.428;2023-05-10T02:43:46;100882.06;;;12.67;100.00
72116;BME280;59991;52.140;5.428;2023-05-10T02:44:19;100889.47;;;12.67;100.00
72116;BME280;59991;52.140;5.428;2023-05-10T02:44:53;100882.06;;;12.67;100.00
72116;BME280;59991;52.140;5.428;2023-05-10T02:45:29;100895.72;;;12.67;100.00
72116;BME280;59991;52.140;5.428;2023-05-10T02:46:01;100894.56;;;12.68;100.00
72116;BME280;59991;52.140;5.428;2023-05-10T02:46:33;100889.88;;;12.69;100.00
72116;BME280;59991;52.140;5.428;2023-05-10T02:47:05;100891.44;;;12.70;100.00
72116;BME280;59991;52.140;5.428;2023-05-10T02:47:36;100887.91;;;12.69;100.00
72116;BME280;59991;52.140;5.428;2023-05-10T02:48:08;100894.56;;;12.68;100.00
72116;BME280;59991;52.140;5.428;2023-05-10T02:48:39;100894.16;;;12.70;100.00
72116;BME280;59991;52.140;5.428;2023-05-10T02:49:11;100897.28;;;12.68;100.00
72116;BME280;59991;52.140;5.428;2023-05-10T02:49:42;100895.34;;;12.69;100.00
72116;BME280;59991;52.140;5.428;2023-05-10T02:50:14;100891.03;;;12.68;100.00
72116;BME280;59991;52.140;5.428;2023-05-10T02:50:47;100887.91;;;12.69;100.00
72116;BME280;59991;52.140;5.428;2023-05-10T02:51:25;100897.28;;;12.68;100.00
72116;BME280;59991;52.140;5.428;2023-05-10T02:52:01;100889.88;;;12.69;100.00
72116;BME280;59991;52.140;5.428;2023-05-10T02:52:46;100892.59;;;12.69;100.00
72116;BME280;59991;52.140;5.428;2023-05-10T02:53:22;100891.03;;;12.68;100.00
72116;BME280;59991;52.140;5.428;2023-05-10T02:53:55;100891.44;;;12.66;100.00
72116;BME280;59991;52.140;5.428;2023-05-10T02:54:31;100885.97;;;12.66;100.00
72116;BME280;59991;52.140;5.428;2023-05-10T02:55:04;100890.66;;;12.66;100.00
72116;BME280;59991;52.140;5.428;2023-05-10T02:55:40;100890.25;;;12.67;100.00
72116;BME280;59991;52.140;5.428;2023-05-10T02:56:22;100888.31;;;12.68;100.00
72116;BME280;59991;52.140;5.428;2023-05-10T02:57:00;100893.38;;;12.66;100.00
72116;BME280;59991;52.140;5.428;2023-05-10T02:57:40;100894.16;;;12.66;100.00
72116;BME280;59991;52.140;5.428;2023-05-10T02:58:12;100891.44;;;12.66;100.00
72116;BME280;59991;52.140;5.428;2023-05-10T02:58:43;100888.28;;;12.64;100.00
72116;BME280;59991;52.140;5.428;2023-05-10T02:59:15;100888.28;;;12.64;100.00
72116;BME280;59991;52.140;5.428;2023-05-10T02:59:46;100893.38;;;12.62;100.00
72116;BME280;59991;52.140;5.428;2023-05-10T03:00:18;100893.38;;;12.62;100.00
72116;BME280;59991;52.140;5.428;2023-05-10T03:00:49;100892.19;;;12.63;100.00
72116;BME280;59991;52.140;5.428;2023-05-10T03:01:21;100892.19;;;12.63;100.00
72116;BME280;59991;52.140;5.428;2023-05-10T03:01:53;100893.75;;;12.64;100.00
72116;BME280;59991;52.140;5.428;2023-05-10T03:02:24;100894.94;;;12.63;100.00
72116;BME280;59991;52.140;5.428;2023-05-10T03:02:56;100894.94;;;12.63;100.00
72116;BME280;59991;52.140;5.428;2023-05-10T03:03:28;100887.91;;;12.62;100.00
72116;BME280;59991;52.140;5.428;2023-05-10T03:04:00;100889.84;;;12.62;100.00
72116;BME280;59991;52.140;5.428;2023-05-10T03:04:32;100890.63;;;12.62;100.00
72116;BME280;59991;52.140;5.428;2023-05-10T03:05:03;100894.16;;;12.63;100.00